AFL2608 USCC-UUWW
Flight info
| Callsign | AFL2608 |
|---|---|
| Flight time | N/A |
| Altitude | 36000 |
| Route | BEDOT2E BEDOT L158 DIMGI DIMGI3B |
| Aircraft | B738/M-SDE2E3FGHIRWXY/LB1 |
Departure
| Time | 2026-04-12 10:01 |
|---|---|
| Airport | Kurchatov Chelyabinsk International Airport (USCC) |
Arrival
| Time | N/A |
|---|---|
| Airport | Vnukovo International Airport (UUWW) |
| Time | Latitude | Longitude | Altitude | Speed | Heading |
|---|---|---|---|---|---|
| 2026-04-12 09:39 | 55.29883 | 61.51165 | 744 ft | 0 kts | 276° |
| 2026-04-12 09:47 | 55.29876 | 61.51236 | 744 ft | 2 kts | 319° |
| 2026-04-12 09:47 | 55.29866 | 61.51244 | 744 ft | 0 kts | 2° |
| 2026-04-12 09:48 | 55.29859 | 61.51242 | 744 ft | 1 kts | 8° |
| 2026-04-12 09:48 | 55.29857 | 61.51242 | 744 ft | 0 kts | 7° |
| 2026-04-12 09:51 | 55.29861 | 61.51243 | 744 ft | 2 kts | 7° |
| 2026-04-12 09:52 | 55.29880 | 61.51247 | 744 ft | 5 kts | 7° |
| 2026-04-12 09:52 | 55.29929 | 61.51257 | 744 ft | 9 kts | 7° |
| 2026-04-12 09:52 | 55.30005 | 61.51267 | 744 ft | 12 kts | 353° |
| 2026-04-12 09:52 | 55.30053 | 61.51145 | 744 ft | 14 kts | 283° |
| 2026-04-12 09:53 | 55.30076 | 61.50969 | 747 ft | 15 kts | 283° |
| 2026-04-12 09:53 | 55.30105 | 61.50760 | 749 ft | 18 kts | 284° |
| 2026-04-12 09:53 | 55.30118 | 61.50670 | 750 ft | 0 kts | 285° |
| 2026-04-12 09:53 | 55.30120 | 61.50657 | 750 ft | 0 kts | 285° |
| 2026-04-12 09:54 | 55.30121 | 61.50652 | 750 ft | 2 kts | 284° |
| 2026-04-12 09:54 | 55.30118 | 61.50609 | 750 ft | 4 kts | 232° |
| 2026-04-12 09:54 | 55.30096 | 61.50637 | 749 ft | 7 kts | 90° |
| 2026-04-12 09:54 | 55.30108 | 61.50734 | 749 ft | 9 kts | 95° |
| 2026-04-12 09:55 | 55.30088 | 61.50884 | 747 ft | 14 kts | 103° |
| 2026-04-12 09:55 | 55.30062 | 61.51082 | 746 ft | 18 kts | 104° |
| 2026-04-12 09:55 | 55.30056 | 61.51271 | 744 ft | 14 kts | 40° |
| 2026-04-12 09:55 | 55.30164 | 61.51321 | 744 ft | 17 kts | 13° |
| 2026-04-12 09:56 | 55.30260 | 61.51261 | 745 ft | 15 kts | 290° |
| 2026-04-12 09:56 | 55.30285 | 61.51064 | 746 ft | 18 kts | 284° |
| 2026-04-12 09:56 | 55.30317 | 61.50836 | 747 ft | 20 kts | 283° |
| 2026-04-12 09:56 | 55.30351 | 61.50592 | 752 ft | 21 kts | 284° |
| 2026-04-12 09:57 | 55.30399 | 61.50247 | 756 ft | 22 kts | 284° |
| 2026-04-12 09:57 | 55.30424 | 61.50063 | 757 ft | 24 kts | 284° |
| 2026-04-12 09:57 | 55.30465 | 61.49770 | 761 ft | 25 kts | 284° |
| 2026-04-12 09:57 | 55.30510 | 61.49449 | 762 ft | 27 kts | 285° |
| 2026-04-12 09:58 | 55.30554 | 61.49113 | 764 ft | 29 kts | 283° |
| 2026-04-12 09:58 | 55.30606 | 61.48743 | 762 ft | 33 kts | 284° |
| 2026-04-12 09:58 | 55.30661 | 61.48342 | 761 ft | 26 kts | 284° |
| 2026-04-12 09:58 | 55.30736 | 61.48163 | 758 ft | 21 kts | 6° |
| 2026-04-12 09:59 | 55.30860 | 61.48287 | 756 ft | 20 kts | 86° |
| 2026-04-12 09:59 | 55.30847 | 61.48407 | 757 ft | 0 kts | 104° |
| 2026-04-12 10:00 | 55.30842 | 61.48443 | 757 ft | 14 kts | 104° |
| 2026-04-12 10:00 | 55.30753 | 61.49094 | 762 ft | 98 kts | 103° |
| 2026-04-12 10:00 | 55.30532 | 61.50710 | 760 ft | 171 kts | 103° |
| 2026-04-12 10:00 | 55.30245 | 61.52918 | 1244 ft | 202 kts | 97° |
| 2026-04-12 10:01 | 55.30315 | 61.55404 | 2042 ft | 213 kts | 73° |
| 2026-04-12 10:01 | 55.31157 | 61.57483 | 2708 ft | 218 kts | 32° |
| 2026-04-12 10:01 | 55.32607 | 61.58112 | 3172 ft | 220 kts | 353° |
| 2026-04-12 10:01 | 55.34077 | 61.57218 | 3460 ft | 234 kts | 323° |
| 2026-04-12 10:02 | 55.35238 | 61.55197 | 3832 ft | 244 kts | 301° |
| 2026-04-12 10:02 | 55.35844 | 61.52354 | 4218 ft | 255 kts | 275° |
| 2026-04-12 10:02 | 55.35766 | 61.49307 | 4892 ft | 254 kts | 263° |
| 2026-04-12 10:02 | 55.35505 | 61.46262 | 5557 ft | 254 kts | 263° |
| 2026-04-12 10:03 | 55.35282 | 61.43177 | 6181 ft | 256 kts | 265° |
| 2026-04-12 10:03 | 55.35113 | 61.40089 | 6860 ft | 256 kts | 265° |
| 2026-04-12 10:03 | 55.34964 | 61.37030 | 7594 ft | 255 kts | 265° |
| 2026-04-12 10:03 | 55.34815 | 61.33926 | 8230 ft | 258 kts | 264° |
| 2026-04-12 10:04 | 55.34659 | 61.30785 | 8893 ft | 259 kts | 264° |
| 2026-04-12 10:04 | 55.34501 | 61.27623 | 9502 ft | 263 kts | 264° |
| 2026-04-12 10:04 | 55.34321 | 61.24463 | 10114 ft | 267 kts | 263° |
| 2026-04-12 10:04 | 55.34057 | 61.21217 | 10297 ft | 269 kts | 261° |
| 2026-04-12 10:05 | 55.33752 | 61.17971 | 10298 ft | 268 kts | 261° |
| 2026-04-12 10:05 | 55.33452 | 61.14760 | 10296 ft | 265 kts | 261° |
| 2026-04-12 10:05 | 55.33164 | 61.11542 | 10356 ft | 278 kts | 261° |
| 2026-04-12 10:05 | 55.32863 | 61.08108 | 10724 ft | 291 kts | 261° |
| 2026-04-12 10:06 | 55.32552 | 61.04550 | 11065 ft | 304 kts | 261° |
| 2026-04-12 10:06 | 55.32225 | 61.00779 | 11351 ft | 320 kts | 261° |
| 2026-04-12 10:06 | 55.31753 | 60.95335 | 11811 ft | 339 kts | 261° |
| 2026-04-12 10:07 | 55.31046 | 60.87179 | 12451 ft | 364 kts | 261° |
| 2026-04-12 10:07 | 55.30661 | 60.82824 | 13152 ft | 366 kts | 261° |
| 2026-04-12 10:07 | 55.30273 | 60.78435 | 13833 ft | 368 kts | 261° |
| 2026-04-12 10:07 | 55.30010 | 60.75465 | 14294 ft | 370 kts | 261° |
| 2026-04-12 10:08 | 55.29467 | 60.69548 | 15193 ft | 374 kts | 261° |
| 2026-04-12 10:08 | 55.29046 | 60.65035 | 15970 ft | 374 kts | 261° |
| 2026-04-12 10:08 | 55.28626 | 60.60575 | 16692 ft | 376 kts | 261° |
| 2026-04-12 10:08 | 55.28199 | 60.56040 | 17209 ft | 382 kts | 261° |
| 2026-04-12 10:09 | 55.27772 | 60.51464 | 17765 ft | 387 kts | 261° |
| 2026-04-12 10:09 | 55.27338 | 60.46782 | 18209 ft | 391 kts | 261° |
| 2026-04-12 10:09 | 55.26902 | 60.42080 | 18263 ft | 388 kts | 261° |
| 2026-04-12 10:09 | 55.26469 | 60.37448 | 18270 ft | 388 kts | 261° |
| 2026-04-12 10:10 | 55.26031 | 60.32792 | 18267 ft | 389 kts | 260° |
| 2026-04-12 10:10 | 55.25589 | 60.28112 | 18800 ft | 394 kts | 260° |
| 2026-04-12 10:10 | 55.25143 | 60.23404 | 19559 ft | 393 kts | 260° |
| 2026-04-12 10:10 | 55.24692 | 60.18663 | 20154 ft | 397 kts | 260° |
| 2026-04-12 10:11 | 55.24233 | 60.13871 | 20752 ft | 400 kts | 260° |
| 2026-04-12 10:11 | 55.23810 | 60.09067 | 21386 ft | 402 kts | 262° |
| 2026-04-12 10:11 | 55.23495 | 60.04223 | 21951 ft | 406 kts | 263° |
| 2026-04-12 10:11 | 55.23238 | 59.99331 | 22540 ft | 408 kts | 264° |
| 2026-04-12 10:12 | 55.22996 | 59.94365 | 23121 ft | 410 kts | 264° |
| 2026-04-12 10:12 | 55.22754 | 59.89425 | 23647 ft | 413 kts | 264° |
| 2026-04-12 10:12 | 55.22500 | 59.84421 | 24218 ft | 415 kts | 264° |
| 2026-04-12 10:12 | 55.22237 | 59.79412 | 24743 ft | 418 kts | 264° |
| 2026-04-12 10:13 | 55.21960 | 59.74299 | 25190 ft | 422 kts | 264° |
| 2026-04-12 10:13 | 55.21752 | 59.69205 | 25239 ft | 425 kts | 267° |
| 2026-04-12 10:13 | 55.21738 | 59.64038 | 25237 ft | 424 kts | 270° |
| 2026-04-12 10:13 | 55.21843 | 59.58895 | 25308 ft | 430 kts | 271° |
| 2026-04-12 10:14 | 55.22003 | 59.53686 | 25936 ft | 430 kts | 272° |
| 2026-04-12 10:14 | 55.22178 | 59.48476 | 26485 ft | 432 kts | 272° |
| 2026-04-12 10:14 | 55.22353 | 59.43198 | 26908 ft | 436 kts | 272° |
| 2026-04-12 10:14 | 55.22516 | 59.37926 | 27387 ft | 438 kts | 271° |
| 2026-04-12 10:15 | 55.22670 | 59.32553 | 27825 ft | 442 kts | 270° |
| 2026-04-12 10:15 | 55.22811 | 59.27266 | 28536 ft | 438 kts | 271° |
| 2026-04-12 10:15 | 55.22946 | 59.21949 | 29289 ft | 434 kts | 270° |
| 2026-04-12 10:15 | 55.23073 | 59.16729 | 29873 ft | 433 kts | 270° |
| 2026-04-12 10:16 | 55.23196 | 59.11500 | 30410 ft | 433 kts | 270° |
| 2026-04-12 10:16 | 55.23317 | 59.06257 | 30961 ft | 431 kts | 270° |
| 2026-04-12 10:16 | 55.23436 | 59.01035 | 31519 ft | 429 kts | 270° |
| 2026-04-12 10:16 | 55.23553 | 58.95789 | 31994 ft | 428 kts | 270° |
| 2026-04-12 10:17 | 55.23665 | 58.90660 | 32447 ft | 427 kts | 270° |
| 2026-04-12 10:17 | 55.23775 | 58.85490 | 32911 ft | 425 kts | 270° |
| 2026-04-12 10:17 | 55.23882 | 58.80345 | 33401 ft | 423 kts | 270° |
| 2026-04-12 10:17 | 55.23986 | 58.75225 | 33808 ft | 422 kts | 270° |
| 2026-04-12 10:18 | 55.24088 | 58.70065 | 34204 ft | 421 kts | 270° |
| 2026-04-12 10:18 | 55.24188 | 58.65013 | 34665 ft | 418 kts | 269° |
| 2026-04-12 10:18 | 55.24284 | 58.59920 | 34991 ft | 418 kts | 269° |
| 2026-04-12 10:18 | 55.24376 | 58.54886 | 35240 ft | 419 kts | 269° |
| 2026-04-12 10:19 | 55.24468 | 58.49752 | 35554 ft | 418 kts | 269° |
| 2026-04-12 10:19 | 55.24556 | 58.44695 | 35736 ft | 419 kts | 270° |
| 2026-04-12 10:19 | 55.24642 | 58.39597 | 35918 ft | 419 kts | 270° |
| 2026-04-12 10:19 | 55.24727 | 58.34543 | 36032 ft | 421 kts | 269° |
| 2026-04-12 10:20 | 55.24813 | 58.29406 | 36170 ft | 422 kts | 269° |
| 2026-04-12 10:20 | 55.24978 | 58.19117 | 36225 ft | 422 kts | 269° |
| 2026-04-12 10:21 | 55.25164 | 58.08916 | 36241 ft | 423 kts | 271° |
| 2026-04-12 10:21 | 55.25716 | 57.98659 | 36250 ft | 425 kts | 274° |
| 2026-04-12 10:22 | 55.26400 | 57.88402 | 36256 ft | 424 kts | 274° |
| 2026-04-12 10:22 | 55.27055 | 57.78182 | 36248 ft | 425 kts | 273° |
| 2026-04-12 10:23 | 55.27673 | 57.67918 | 36250 ft | 425 kts | 273° |
| 2026-04-12 10:23 | 55.28272 | 57.57558 | 36258 ft | 426 kts | 273° |
| 2026-04-12 10:24 | 55.28852 | 57.47272 | 36247 ft | 426 kts | 273° |
| 2026-04-12 10:24 | 55.29420 | 57.37000 | 36236 ft | 425 kts | 273° |
| 2026-04-12 10:25 | 55.29980 | 57.26724 | 36232 ft | 425 kts | 272° |
| 2026-04-12 10:25 | 55.30535 | 57.16370 | 36242 ft | 426 kts | 272° |
| 2026-04-12 10:26 | 55.31072 | 57.06116 | 36246 ft | 425 kts | 272° |
| 2026-04-12 10:26 | 55.31607 | 56.95825 | 36250 ft | 425 kts | 272° |
| 2026-04-12 10:27 | 55.32133 | 56.85508 | 36256 ft | 425 kts | 272° |
| 2026-04-12 10:27 | 55.32652 | 56.75229 | 36248 ft | 424 kts | 272° |
| 2026-04-12 10:28 | 55.33158 | 56.64980 | 36252 ft | 425 kts | 272° |
| 2026-04-12 10:28 | 55.33654 | 56.54730 | 36201 ft | 421 kts | 272° |
| 2026-04-12 10:28 | 55.33899 | 56.49606 | 36373 ft | 420 kts | 272° |
| 2026-04-12 10:29 | 55.34141 | 56.44546 | 36283 ft | 417 kts | 272° |
| 2026-04-12 10:29 | 55.34553 | 56.34335 | 36260 ft | 421 kts | 270° |
| 2026-04-12 10:30 | 55.35008 | 56.24131 | 36257 ft | 421 kts | 271° |
| 2026-04-12 10:30 | 55.35515 | 56.13907 | 36259 ft | 420 kts | 271° |
| 2026-04-12 10:31 | 55.35985 | 56.03805 | 36260 ft | 418 kts | 271° |
| 2026-04-12 10:31 | 55.36435 | 55.93626 | 36253 ft | 419 kts | 271° |
| 2026-04-12 10:32 | 55.36875 | 55.83362 | 36255 ft | 422 kts | 271° |
| 2026-04-12 10:32 | 55.37306 | 55.73146 | 36258 ft | 420 kts | 271° |
| 2026-04-12 10:33 | 55.37724 | 55.62928 | 36258 ft | 422 kts | 271° |
| 2026-04-12 10:33 | 55.38139 | 55.52626 | 36265 ft | 423 kts | 271° |
| 2026-04-12 10:34 | 55.38540 | 55.42395 | 36268 ft | 421 kts | 271° |
| 2026-04-12 10:34 | 55.38929 | 55.32187 | 36269 ft | 423 kts | 270° |
| 2026-04-12 10:35 | 55.39299 | 55.21933 | 36273 ft | 421 kts | 269° |
| 2026-04-12 10:35 | 55.39377 | 55.18926 | 36274 ft | 421 kts | 269° |
| 2026-04-12 10:37 | 55.39441 | 55.15692 | 36272 ft | 422 kts | 268° |
| 2026-04-12 10:37 | 55.39587 | 55.05363 | 36271 ft | 423 kts | 268° |
| 2026-04-12 10:38 | 55.39722 | 54.95021 | 36287 ft | 425 kts | 268° |
| 2026-04-12 10:38 | 55.39867 | 54.84691 | 36281 ft | 424 kts | 268° |
| 2026-04-12 10:39 | 55.40008 | 54.74355 | 36278 ft | 424 kts | 268° |
| 2026-04-12 10:39 | 55.40122 | 54.65778 | 36275 ft | 423 kts | 268° |
| 2026-04-12 10:40 | 55.40272 | 54.53744 | 36273 ft | 423 kts | 268° |
| 2026-04-12 10:40 | 55.40393 | 54.43375 | 36284 ft | 422 kts | 268° |
| 2026-04-12 10:41 | 55.40505 | 54.33096 | 36285 ft | 422 kts | 267° |
| 2026-04-12 10:41 | 55.40608 | 54.22715 | 36276 ft | 422 kts | 267° |
| 2026-04-12 10:42 | 55.40705 | 54.12392 | 36276 ft | 423 kts | 267° |
| 2026-04-12 10:42 | 55.40789 | 54.02088 | 36280 ft | 422 kts | 267° |
| 2026-04-12 10:43 | 55.40904 | 53.86613 | 36273 ft | 423 kts | 267° |
| 2026-04-12 10:43 | 55.40971 | 53.76324 | 36281 ft | 424 kts | 267° |
| 2026-04-12 10:44 | 55.41031 | 53.66007 | 36274 ft | 421 kts | 267° |
| 2026-04-12 10:44 | 55.41082 | 53.55716 | 36283 ft | 424 kts | 267° |
| 2026-04-12 10:45 | 55.41121 | 53.45356 | 36267 ft | 422 kts | 267° |
| 2026-04-12 10:45 | 55.41154 | 53.35061 | 36274 ft | 423 kts | 267° |
| 2026-04-12 10:46 | 55.41180 | 53.24734 | 36284 ft | 424 kts | 266° |
| 2026-04-12 10:46 | 55.41200 | 53.14365 | 36283 ft | 424 kts | 266° |
| 2026-04-12 10:47 | 55.41207 | 53.03981 | 36283 ft | 424 kts | 266° |
| 2026-04-12 10:47 | 55.41209 | 52.93673 | 36283 ft | 422 kts | 266° |
| 2026-04-12 10:48 | 55.41199 | 52.83339 | 36283 ft | 424 kts | 266° |
| 2026-04-12 10:48 | 55.41179 | 52.73039 | 36287 ft | 423 kts | 266° |
| 2026-04-12 10:49 | 55.41151 | 52.62691 | 36286 ft | 426 kts | 266° |
| 2026-04-12 10:49 | 55.41112 | 52.52306 | 36288 ft | 425 kts | 266° |
| 2026-04-12 10:50 | 55.41065 | 52.41933 | 36291 ft | 426 kts | 266° |
| 2026-04-12 10:50 | 55.41009 | 52.31513 | 36294 ft | 426 kts | 265° |
| 2026-04-12 10:51 | 55.40945 | 52.21025 | 36302 ft | 426 kts | 265° |
| 2026-04-12 10:51 | 55.40877 | 52.10662 | 36301 ft | 427 kts | 265° |
| 2026-04-12 10:52 | 55.40796 | 52.00307 | 36296 ft | 427 kts | 265° |
| 2026-04-12 10:52 | 55.40707 | 51.89878 | 36311 ft | 426 kts | 265° |
| 2026-04-12 10:53 | 55.40609 | 51.79511 | 36308 ft | 427 kts | 265° |
| 2026-04-12 10:53 | 55.40502 | 51.69094 | 36296 ft | 426 kts | 265° |
| 2026-04-12 10:54 | 55.40385 | 51.58746 | 36294 ft | 426 kts | 265° |
| 2026-04-12 10:54 | 55.40256 | 51.48258 | 36308 ft | 427 kts | 265° |
| 2026-04-12 10:55 | 55.40125 | 51.37895 | 36295 ft | 427 kts | 265° |
| 2026-04-12 10:55 | 55.39984 | 51.27472 | 36305 ft | 427 kts | 265° |
| 2026-04-12 10:56 | 55.39837 | 51.17133 | 36309 ft | 427 kts | 264° |
| 2026-04-12 10:56 | 55.39697 | 51.06699 | 36296 ft | 426 kts | 265° |
| 2026-04-12 10:57 | 55.39642 | 50.96277 | 36296 ft | 428 kts | 265° |
| 2026-04-12 10:57 | 55.39605 | 50.85855 | 36281 ft | 427 kts | 265° |
| 2026-04-12 10:58 | 55.39548 | 50.75443 | 36295 ft | 428 kts | 265° |
| 2026-04-12 10:58 | 55.39477 | 50.65037 | 36294 ft | 427 kts | 265° |
| 2026-04-12 10:59 | 55.39388 | 50.54573 | 36292 ft | 429 kts | 265° |
| 2026-04-12 10:59 | 55.39290 | 50.44101 | 36297 ft | 428 kts | 265° |
| 2026-04-12 11:00 | 55.39184 | 50.33647 | 36294 ft | 430 kts | 264° |
| 2026-04-12 11:00 | 55.39074 | 50.23181 | 36288 ft | 430 kts | 264° |
| 2026-04-12 11:01 | 55.38955 | 50.12781 | 36284 ft | 429 kts | 264° |
| 2026-04-12 11:01 | 55.38825 | 50.02326 | 36293 ft | 430 kts | 264° |
| 2026-04-12 11:02 | 55.38893 | 49.91859 | 36278 ft | 432 kts | 269° |
| 2026-04-12 11:02 | 55.39407 | 49.81303 | 36289 ft | 434 kts | 271° |
| 2026-04-12 11:03 | 55.39998 | 49.70833 | 36288 ft | 434 kts | 271° |
| 2026-04-12 11:03 | 55.40557 | 49.60263 | 36307 ft | 436 kts | 271° |
| 2026-04-12 11:04 | 55.41083 | 49.49631 | 36314 ft | 436 kts | 271° |
| 2026-04-12 11:04 | 55.41582 | 49.39063 | 36330 ft | 438 kts | 271° |
| 2026-04-12 11:05 | 55.42072 | 49.28423 | 36337 ft | 437 kts | 270° |
| 2026-04-12 11:05 | 55.42551 | 49.17762 | 36334 ft | 437 kts | 270° |
| 2026-04-12 11:06 | 55.43015 | 49.07149 | 36316 ft | 437 kts | 270° |
| 2026-04-12 11:06 | 55.43470 | 48.96520 | 36316 ft | 438 kts | 270° |
| 2026-04-12 11:07 | 55.43922 | 48.85872 | 36317 ft | 440 kts | 270° |
| 2026-04-12 11:07 | 55.44294 | 48.76889 | 36312 ft | 441 kts | 270° |
| 2026-04-12 11:08 | 55.44801 | 48.64400 | 36317 ft | 441 kts | 270° |
| 2026-04-12 11:08 | 55.45439 | 48.53659 | 36306 ft | 447 kts | 276° |
| 2026-04-12 11:09 | 55.46934 | 48.42888 | 36319 ft | 450 kts | 283° |
| 2026-04-12 11:09 | 55.48789 | 48.32363 | 36311 ft | 451 kts | 283° |
| 2026-04-12 11:10 | 55.50693 | 48.21796 | 36310 ft | 452 kts | 283° |
| 2026-04-12 11:10 | 55.52550 | 48.11255 | 36311 ft | 453 kts | 283° |
| 2026-04-12 11:11 | 55.54394 | 48.00582 | 36314 ft | 454 kts | 283° |
| 2026-04-12 11:11 | 55.56202 | 47.89967 | 36320 ft | 455 kts | 283° |
| 2026-04-12 11:12 | 55.58007 | 47.79256 | 36329 ft | 455 kts | 283° |
| 2026-04-12 11:12 | 55.59801 | 47.68556 | 36329 ft | 456 kts | 283° |
| 2026-04-12 11:13 | 55.61590 | 47.57824 | 36319 ft | 456 kts | 283° |
| 2026-04-12 11:13 | 55.63377 | 47.47040 | 36323 ft | 456 kts | 283° |
| 2026-04-12 11:14 | 55.65149 | 47.36251 | 36316 ft | 458 kts | 283° |
| 2026-04-12 11:14 | 55.66908 | 47.25490 | 36323 ft | 458 kts | 282° |
| 2026-04-12 11:15 | 55.68672 | 47.14655 | 36329 ft | 458 kts | 282° |
| 2026-04-12 11:15 | 55.70425 | 47.03794 | 36320 ft | 458 kts | 282° |
| 2026-04-12 11:16 | 55.72172 | 46.92901 | 36323 ft | 461 kts | 283° |
| 2026-04-12 11:16 | 55.73916 | 46.81972 | 36324 ft | 461 kts | 282° |
| 2026-04-12 11:17 | 55.75645 | 46.71053 | 36330 ft | 462 kts | 283° |
| 2026-04-12 11:17 | 55.77374 | 46.60082 | 36327 ft | 461 kts | 283° |
| 2026-04-12 11:18 | 55.78992 | 46.49056 | 36334 ft | 462 kts | 279° |
| 2026-04-12 11:18 | 55.79840 | 46.37850 | 36334 ft | 460 kts | 272° |
| 2026-04-12 11:19 | 55.80224 | 46.26534 | 36333 ft | 459 kts | 270° |
| 2026-04-12 11:19 | 55.80526 | 46.15277 | 36333 ft | 462 kts | 270° |
| 2026-04-12 11:20 | 55.80839 | 46.03924 | 36337 ft | 461 kts | 270° |
| 2026-04-12 11:20 | 55.81170 | 45.92536 | 36343 ft | 463 kts | 270° |
| 2026-04-12 11:21 | 55.81495 | 45.81139 | 36337 ft | 463 kts | 270° |
| 2026-04-12 11:21 | 55.81810 | 45.69733 | 36315 ft | 464 kts | 270° |
| 2026-04-12 11:22 | 55.82115 | 45.58352 | 36333 ft | 466 kts | 270° |
| 2026-04-12 11:22 | 55.82415 | 45.46902 | 36328 ft | 465 kts | 270° |
| 2026-04-12 11:23 | 55.82709 | 45.35447 | 36345 ft | 466 kts | 270° |
| 2026-04-12 11:23 | 55.82989 | 45.23932 | 36331 ft | 466 kts | 270° |
| 2026-04-12 11:24 | 55.83260 | 45.12420 | 36339 ft | 466 kts | 270° |
| 2026-04-12 11:24 | 55.83517 | 45.00937 | 36328 ft | 466 kts | 270° |
| 2026-04-12 11:25 | 55.83767 | 44.89446 | 36341 ft | 467 kts | 270° |
| 2026-04-12 11:25 | 55.84019 | 44.77856 | 36333 ft | 468 kts | 270° |
| 2026-04-12 11:26 | 55.84258 | 44.66354 | 36334 ft | 468 kts | 270° |
| 2026-04-12 11:26 | 55.84486 | 44.54749 | 36336 ft | 469 kts | 270° |
| 2026-04-12 11:27 | 55.84700 | 44.43200 | 36333 ft | 469 kts | 270° |
| 2026-04-12 11:27 | 55.84903 | 44.31614 | 36326 ft | 470 kts | 269° |
| 2026-04-12 11:28 | 55.85097 | 44.20017 | 36333 ft | 470 kts | 269° |
| 2026-04-12 11:28 | 55.85284 | 44.08390 | 36330 ft | 471 kts | 269° |
| 2026-04-12 11:29 | 55.85460 | 43.96783 | 36328 ft | 470 kts | 269° |
| 2026-04-12 11:29 | 55.85621 | 43.85149 | 36327 ft | 470 kts | 269° |
| 2026-04-12 11:30 | 55.85769 | 43.73585 | 36328 ft | 472 kts | 269° |
| 2026-04-12 11:30 | 55.85909 | 43.61895 | 36324 ft | 471 kts | 269° |
| 2026-04-12 11:31 | 55.86038 | 43.50279 | 36326 ft | 472 kts | 269° |
| 2026-04-12 11:31 | 55.86161 | 43.38610 | 36326 ft | 472 kts | 269° |
| 2026-04-12 11:32 | 55.86277 | 43.26971 | 36325 ft | 471 kts | 269° |
| 2026-04-12 11:32 | 55.86382 | 43.15363 | 36331 ft | 471 kts | 269° |
| 2026-04-12 11:33 | 55.86476 | 43.03770 | 36334 ft | 472 kts | 269° |
| 2026-04-12 11:33 | 55.86559 | 42.92087 | 36328 ft | 473 kts | 269° |
| 2026-04-12 11:34 | 55.86629 | 42.80444 | 36326 ft | 473 kts | 269° |
| 2026-04-12 11:34 | 55.86690 | 42.68760 | 36327 ft | 473 kts | 269° |
| 2026-04-12 11:35 | 55.86740 | 42.57038 | 36324 ft | 473 kts | 269° |
| 2026-04-12 11:35 | 55.86778 | 42.45337 | 36324 ft | 473 kts | 269° |
| 2026-04-12 11:36 | 55.86804 | 42.33645 | 36324 ft | 475 kts | 268° |
| 2026-04-12 11:36 | 55.86818 | 42.21892 | 36327 ft | 475 kts | 269° |
| 2026-04-12 11:37 | 55.86821 | 42.10183 | 36326 ft | 475 kts | 269° |
| 2026-04-12 11:37 | 55.86815 | 41.98423 | 36327 ft | 475 kts | 269° |
| 2026-04-12 11:38 | 55.86798 | 41.86752 | 36312 ft | 475 kts | 269° |
| 2026-04-12 11:38 | 55.86786 | 41.80937 | 36124 ft | 467 kts | 269° |
| 2026-04-12 11:38 | 55.86756 | 41.75262 | 35913 ft | 457 kts | 268° |
| 2026-04-12 11:39 | 55.86650 | 41.69661 | 35697 ft | 449 kts | 266° |
| 2026-04-12 11:39 | 55.86489 | 41.64144 | 35474 ft | 447 kts | 265° |
| 2026-04-12 11:39 | 55.86302 | 41.58685 | 35263 ft | 451 kts | 265° |
| 2026-04-12 11:39 | 55.86101 | 41.53104 | 35047 ft | 453 kts | 265° |
| 2026-04-12 11:40 | 55.85902 | 41.47485 | 34825 ft | 453 kts | 265° |
| 2026-04-12 11:40 | 55.85709 | 41.41892 | 34604 ft | 452 kts | 265° |
| 2026-04-12 11:40 | 55.85521 | 41.36335 | 34389 ft | 453 kts | 265° |
| 2026-04-12 11:40 | 55.85332 | 41.30714 | 34170 ft | 459 kts | 265° |
| 2026-04-12 11:41 | 55.85142 | 41.25090 | 33949 ft | 462 kts | 265° |
| 2026-04-12 11:41 | 55.84951 | 41.19394 | 33731 ft | 462 kts | 265° |
| 2026-04-12 11:41 | 55.84759 | 41.13725 | 33548 ft | 461 kts | 265° |
| 2026-04-12 11:41 | 55.84565 | 41.08047 | 33361 ft | 460 kts | 265° |
| 2026-04-12 11:42 | 55.84369 | 41.02372 | 33180 ft | 460 kts | 265° |
| 2026-04-12 11:42 | 55.84172 | 40.96754 | 33002 ft | 460 kts | 265° |
| 2026-04-12 11:42 | 55.83972 | 40.91097 | 32840 ft | 460 kts | 265° |
| 2026-04-12 11:43 | 55.83567 | 40.79781 | 32516 ft | 458 kts | 264° |
| 2026-04-12 11:43 | 55.83362 | 40.74206 | 32359 ft | 457 kts | 264° |
| 2026-04-12 11:43 | 55.83151 | 40.68552 | 32192 ft | 456 kts | 264° |
| 2026-04-12 11:43 | 55.82939 | 40.62953 | 32031 ft | 455 kts | 264° |
| 2026-04-12 11:44 | 55.82722 | 40.57358 | 31866 ft | 454 kts | 264° |
| 2026-04-12 11:44 | 55.82501 | 40.51792 | 31699 ft | 454 kts | 264° |
| 2026-04-12 11:44 | 55.82272 | 40.46131 | 31535 ft | 453 kts | 264° |
| 2026-04-12 11:44 | 55.82044 | 40.40600 | 31358 ft | 452 kts | 264° |
| 2026-04-12 11:45 | 55.81813 | 40.35054 | 31195 ft | 452 kts | 264° |
| 2026-04-12 11:45 | 55.81580 | 40.29517 | 31019 ft | 451 kts | 263° |
| 2026-04-12 11:45 | 55.81346 | 40.24015 | 30821 ft | 451 kts | 263° |
| 2026-04-12 11:45 | 55.81108 | 40.18469 | 30608 ft | 450 kts | 263° |
| 2026-04-12 11:46 | 55.80872 | 40.12972 | 30397 ft | 450 kts | 263° |
| 2026-04-12 11:46 | 55.80630 | 40.07443 | 30207 ft | 450 kts | 263° |
| 2026-04-12 11:46 | 55.80385 | 40.01897 | 29990 ft | 450 kts | 263° |
| 2026-04-12 11:46 | 55.80138 | 39.96349 | 29778 ft | 450 kts | 263° |
| 2026-04-12 11:47 | 55.79887 | 39.90807 | 29572 ft | 456 kts | 264° |
| 2026-04-12 11:47 | 55.79628 | 39.85165 | 29366 ft | 471 kts | 264° |
| 2026-04-12 11:47 | 55.79353 | 39.79331 | 29149 ft | 477 kts | 263° |
| 2026-04-12 11:47 | 55.79028 | 39.73483 | 28934 ft | 474 kts | 262° |
| 2026-04-12 11:48 | 55.78656 | 39.67673 | 28717 ft | 471 kts | 262° |
| 2026-04-12 11:48 | 55.78265 | 39.61979 | 28476 ft | 469 kts | 262° |
| 2026-04-12 11:48 | 55.77862 | 39.56266 | 28227 ft | 466 kts | 262° |
| 2026-04-12 11:48 | 55.77456 | 39.50548 | 27973 ft | 464 kts | 262° |
| 2026-04-12 11:49 | 55.77058 | 39.44924 | 27713 ft | 463 kts | 262° |
| 2026-04-12 11:49 | 55.76662 | 39.39318 | 27468 ft | 461 kts | 262° |
| 2026-04-12 11:49 | 55.76265 | 39.33696 | 27198 ft | 459 kts | 261° |
| 2026-04-12 11:49 | 55.75869 | 39.28104 | 27001 ft | 452 kts | 261° |
| 2026-04-12 11:50 | 55.75489 | 39.22708 | 27075 ft | 436 kts | 261° |
| 2026-04-12 11:50 | 55.75105 | 39.17322 | 26830 ft | 450 kts | 261° |
| 2026-04-12 11:50 | 55.74705 | 39.11766 | 26575 ft | 455 kts | 261° |
| 2026-04-12 11:50 | 55.74311 | 39.06291 | 26324 ft | 441 kts | 261° |
| 2026-04-12 11:51 | 55.73944 | 39.01165 | 26303 ft | 411 kts | 261° |
| 2026-04-12 11:51 | 55.73587 | 38.96190 | 26325 ft | 396 kts | 261° |
| 2026-04-12 11:51 | 55.73243 | 38.91442 | 26321 ft | 388 kts | 261° |
| 2026-04-12 11:51 | 55.72886 | 38.86725 | 26321 ft | 390 kts | 261° |
| 2026-04-12 11:52 | 55.72511 | 38.81939 | 26311 ft | 391 kts | 260° |
| 2026-04-12 11:52 | 55.72137 | 38.77168 | 26308 ft | 391 kts | 261° |
| 2026-04-12 11:52 | 55.71762 | 38.72416 | 26298 ft | 390 kts | 261° |
| 2026-04-12 11:52 | 55.71386 | 38.67672 | 26304 ft | 391 kts | 261° |
| 2026-04-12 11:53 | 55.71015 | 38.62873 | 26298 ft | 391 kts | 261° |
| 2026-04-12 11:53 | 55.70656 | 38.58117 | 26293 ft | 391 kts | 261° |
| 2026-04-12 11:53 | 55.70299 | 38.53354 | 26302 ft | 392 kts | 261° |
| 2026-04-12 11:53 | 55.69938 | 38.48558 | 26298 ft | 392 kts | 261° |
| 2026-04-12 11:54 | 55.69578 | 38.43819 | 26305 ft | 392 kts | 261° |
| 2026-04-12 11:54 | 55.69214 | 38.39066 | 26303 ft | 392 kts | 261° |
| 2026-04-12 11:54 | 55.68846 | 38.34264 | 26103 ft | 394 kts | 260° |
| 2026-04-12 11:54 | 55.68481 | 38.29525 | 25823 ft | 386 kts | 260° |
| 2026-04-12 11:55 | 55.68116 | 38.24814 | 25199 ft | 386 kts | 260° |
| 2026-04-12 11:55 | 55.67754 | 38.20175 | 24738 ft | 381 kts | 260° |
| 2026-04-12 11:55 | 55.67386 | 38.15537 | 24246 ft | 377 kts | 260° |
| 2026-04-12 11:55 | 55.67016 | 38.10966 | 23714 ft | 374 kts | 260° |
| 2026-04-12 11:56 | 55.66648 | 38.06440 | 23208 ft | 370 kts | 260° |
| 2026-04-12 11:56 | 55.66286 | 38.02005 | 22697 ft | 367 kts | 259° |
| 2026-04-12 11:56 | 55.65920 | 37.97543 | 22172 ft | 364 kts | 259° |
| 2026-04-12 11:56 | 55.65556 | 37.93144 | 21651 ft | 361 kts | 259° |
| 2026-04-12 11:57 | 55.65093 | 37.88836 | 21156 ft | 357 kts | 254° |
| 2026-04-12 11:57 | 55.64318 | 37.84694 | 20611 ft | 352 kts | 244° |
| 2026-04-12 11:57 | 55.63246 | 37.80865 | 20108 ft | 347 kts | 239° |
| 2026-04-12 11:57 | 55.62056 | 37.77193 | 19611 ft | 343 kts | 237° |
| 2026-04-12 11:58 | 55.60846 | 37.73620 | 19109 ft | 340 kts | 237° |
| 2026-04-12 11:58 | 55.59631 | 37.70067 | 18657 ft | 336 kts | 237° |
| 2026-04-12 11:58 | 55.58436 | 37.66558 | 18134 ft | 334 kts | 237° |
| 2026-04-12 11:58 | 55.57247 | 37.63041 | 17594 ft | 333 kts | 236° |
| 2026-04-12 11:59 | 55.55913 | 37.59777 | 17078 ft | 329 kts | 226° |
| 2026-04-12 11:59 | 55.54134 | 37.57319 | 16559 ft | 323 kts | 204° |
| 2026-04-12 11:59 | 55.52036 | 37.56292 | 16158 ft | 316 kts | 187° |
| 2026-04-12 11:59 | 55.49833 | 37.55880 | 15914 ft | 318 kts | 186° |
| 2026-04-12 12:00 | 55.47650 | 37.55458 | 15549 ft | 318 kts | 186° |
| 2026-04-12 12:00 | 55.45462 | 37.54986 | 15277 ft | 315 kts | 187° |
| 2026-04-12 12:00 | 55.43317 | 37.54504 | 15015 ft | 315 kts | 187° |
| 2026-04-12 12:00 | 55.41132 | 37.54010 | 14751 ft | 315 kts | 187° |
| 2026-04-12 12:01 | 55.38965 | 37.53522 | 14482 ft | 313 kts | 187° |
| 2026-04-12 12:01 | 55.36833 | 37.53047 | 14307 ft | 309 kts | 186° |
| 2026-04-12 12:01 | 55.35429 | 37.52802 | 14306 ft | 309 kts | 183° |
| 2026-04-12 12:01 | 55.33260 | 37.52716 | 14101 ft | 311 kts | 179° |
| 2026-04-12 12:02 | 55.30418 | 37.52947 | 13748 ft | 308 kts | 176° |
| 2026-04-12 12:02 | 55.28289 | 37.53196 | 13480 ft | 306 kts | 176° |
| 2026-04-12 12:02 | 55.26180 | 37.53434 | 13167 ft | 307 kts | 176° |
| 2026-04-12 12:02 | 55.24039 | 37.53654 | 12559 ft | 311 kts | 177° |
| 2026-04-12 12:03 | 55.21901 | 37.53838 | 12296 ft | 301 kts | 179° |
| 2026-04-12 12:03 | 55.19858 | 37.53831 | 12293 ft | 289 kts | 181° |
| 2026-04-12 12:03 | 55.17803 | 37.53719 | 12299 ft | 303 kts | 182° |
| 2026-04-12 12:03 | 55.15698 | 37.53566 | 12243 ft | 304 kts | 182° |
| 2026-04-12 12:04 | 55.13584 | 37.53408 | 11983 ft | 303 kts | 182° |
| 2026-04-12 12:04 | 55.11489 | 37.53258 | 11600 ft | 304 kts | 182° |
| 2026-04-12 12:04 | 55.09373 | 37.53090 | 10961 ft | 308 kts | 184° |
| 2026-04-12 12:04 | 55.07274 | 37.52428 | 10312 ft | 313 kts | 198° |
| 2026-04-12 12:05 | 55.05448 | 37.50478 | 9671 ft | 319 kts | 225° |
| 2026-04-12 12:05 | 55.04308 | 37.47162 | 9028 ft | 324 kts | 249° |
| 2026-04-12 12:05 | 55.03841 | 37.43352 | 8449 ft | 326 kts | 269° |
| 2026-04-12 12:05 | 55.04375 | 37.39608 | 8288 ft | 315 kts | 299° |
| 2026-04-12 12:06 | 55.05738 | 37.36771 | 8294 ft | 306 kts | 322° |
| 2026-04-12 12:06 | 55.07595 | 37.34895 | 8296 ft | 308 kts | 338° |
| 2026-04-12 12:06 | 55.09618 | 37.33854 | 8284 ft | 307 kts | 352° |
| 2026-04-12 12:06 | 55.11726 | 37.34059 | 8284 ft | 302 kts | 18° |
| 2026-04-12 12:07 | 55.13667 | 37.35421 | 8295 ft | 302 kts | 23° |
| 2026-04-12 12:07 | 55.15637 | 37.36333 | 8248 ft | 287 kts | 8° |
| 2026-04-12 12:07 | 55.17535 | 37.36505 | 8277 ft | 262 kts | 1° |
| 2026-04-12 12:07 | 55.19327 | 37.36461 | 8305 ft | 254 kts | 0° |
| 2026-04-12 12:08 | 55.20601 | 37.36441 | 8207 ft | 254 kts | 1° |
| 2026-04-12 12:08 | 55.22378 | 37.36480 | 7739 ft | 260 kts | 3° |
| 2026-04-12 12:08 | 55.24234 | 37.36574 | 7100 ft | 271 kts | 4° |
| 2026-04-12 12:08 | 55.26140 | 37.36688 | 6460 ft | 280 kts | 4° |
| 2026-04-12 12:09 | 55.28093 | 37.36805 | 5820 ft | 287 kts | 4° |
| 2026-04-12 12:09 | 55.30103 | 37.36866 | 5350 ft | 287 kts | 359° |
| 2026-04-12 12:09 | 55.32025 | 37.36321 | 5270 ft | 275 kts | 340° |
| 2026-04-12 12:09 | 55.33591 | 37.34665 | 5286 ft | 260 kts | 321° |
| 2026-04-12 12:10 | 55.34884 | 37.32603 | 5288 ft | 246 kts | 317° |
| 2026-04-12 12:10 | 55.36118 | 37.30563 | 5297 ft | 242 kts | 318° |
| 2026-04-12 12:10 | 55.37375 | 37.28591 | 5299 ft | 243 kts | 320° |
| 2026-04-12 12:10 | 55.38653 | 37.26667 | 5299 ft | 243 kts | 320° |
| 2026-04-12 12:11 | 55.39948 | 37.24744 | 5299 ft | 244 kts | 320° |
| 2026-04-12 12:11 | 55.41245 | 37.22819 | 5300 ft | 244 kts | 320° |
| 2026-04-12 12:11 | 55.42534 | 37.20899 | 5300 ft | 243 kts | 320° |
| 2026-04-12 12:11 | 55.43830 | 37.18962 | 5301 ft | 243 kts | 320° |
| 2026-04-12 12:12 | 55.45114 | 37.17043 | 5302 ft | 244 kts | 320° |
| 2026-04-12 12:12 | 55.46410 | 37.15106 | 5301 ft | 244 kts | 320° |
| 2026-04-12 12:12 | 55.47691 | 37.13191 | 5300 ft | 244 kts | 320° |
| 2026-04-12 12:12 | 55.48548 | 37.11907 | 5300 ft | 243 kts | 320° |
| 2026-04-12 12:13 | 55.50274 | 37.09332 | 5301 ft | 243 kts | 322° |
| 2026-04-12 12:13 | 55.51706 | 37.07726 | 5227 ft | 243 kts | 341° |
| 2026-04-12 12:13 | 55.53320 | 37.07441 | 5112 ft | 235 kts | 16° |
| 2026-04-12 12:13 | 55.54179 | 37.08020 | 5041 ft | 223 kts | 33° |